EWG8EL EDDH-EGLL
Flight info
| Callsign | EWG8EL |
|---|---|
| Flight time | 1h 26m |
| Altitude | 38000 |
| Route | WSN5G WSN N125 ITMIZ DCT ABNED L980 LOGAN LOGAN2H |
| Aircraft | A319/M-SDE2E3FGIJ1RWXYZ/EB1 |
Departure
| Time | 2026-05-06 19:18 |
|---|---|
| Airport | Hamburg Helmut Schmidt Airport (EDDH) |
Arrival
| Time | 2026-05-06 20:45 |
|---|---|
| Airport | London Heathrow Airport (EGLL) |
| Time | Latitude | Longitude | Altitude | Speed | Heading |
|---|---|---|---|---|---|
| 2026-05-06 18:54 | 53.63084 | 10.00081 | 51 ft | 0 kts | 325° |
| 2026-05-06 19:09 | 53.63083 | 10.00082 | 50 ft | 2 kts | 325° |
| 2026-05-06 19:09 | 53.63064 | 10.00109 | 51 ft | 4 kts | 300° |
| 2026-05-06 19:10 | 53.63056 | 10.00151 | 51 ft | 4 kts | 261° |
| 2026-05-06 19:10 | 53.63065 | 10.00182 | 51 ft | 1 kts | 212° |
| 2026-05-06 19:13 | 53.63060 | 10.00177 | 51 ft | 2 kts | 212° |
| 2026-05-06 19:13 | 53.63037 | 10.00152 | 51 ft | 6 kts | 212° |
| 2026-05-06 19:13 | 53.62995 | 10.00109 | 48 ft | 8 kts | 212° |
| 2026-05-06 19:14 | 53.62948 | 10.00054 | 51 ft | 8 kts | 220° |
| 2026-05-06 19:14 | 53.62911 | 9.99969 | 50 ft | 8 kts | 238° |
| 2026-05-06 19:14 | 53.62896 | 9.99918 | 52 ft | 2 kts | 244° |
| 2026-05-06 19:14 | 53.62894 | 9.99914 | 52 ft | 0 kts | 244° |
| 2026-05-06 19:16 | 53.62891 | 9.99903 | 52 ft | 2 kts | 244° |
| 2026-05-06 19:16 | 53.62881 | 9.99868 | 52 ft | 4 kts | 244° |
| 2026-05-06 19:17 | 53.62865 | 9.99815 | 53 ft | 6 kts | 244° |
| 2026-05-06 19:17 | 53.62868 | 9.99742 | 49 ft | 8 kts | 309° |
| 2026-05-06 19:17 | 53.62928 | 9.99690 | 53 ft | 17 kts | 334° |
| 2026-05-06 19:17 | 53.63228 | 9.99435 | 52 ft | 79 kts | 332° |
| 2026-05-06 19:18 | 53.63892 | 9.98858 | 50 ft | 135 kts | 333° |
| 2026-05-06 19:18 | 53.64851 | 9.98038 | 298 ft | 160 kts | 336° |
| 2026-05-06 19:18 | 53.65522 | 9.97475 | 748 ft | 160 kts | 337° |
| 2026-05-06 19:18 | 53.66521 | 9.96610 | 1428 ft | 167 kts | 338° |
| 2026-05-06 19:19 | 53.67602 | 9.95687 | 1826 ft | 187 kts | 338° |
| 2026-05-06 19:19 | 53.68858 | 9.94626 | 2231 ft | 212 kts | 337° |
| 2026-05-06 19:19 | 53.70207 | 9.93466 | 3020 ft | 220 kts | 335° |
| 2026-05-06 19:19 | 53.71302 | 9.91632 | 3952 ft | 232 kts | 297° |
| 2026-05-06 19:20 | 53.71541 | 9.88889 | 4621 ft | 256 kts | 264° |
| 2026-05-06 19:20 | 53.71132 | 9.85827 | 5289 ft | 276 kts | 252° |
| 2026-05-06 19:20 | 53.70481 | 9.82744 | 6296 ft | 281 kts | 249° |
| 2026-05-06 19:20 | 53.69763 | 9.79652 | 7309 ft | 284 kts | 249° |
| 2026-05-06 19:21 | 53.69045 | 9.76521 | 8310 ft | 288 kts | 250° |
| 2026-05-06 19:21 | 53.68342 | 9.73326 | 8959 ft | 291 kts | 251° |
| 2026-05-06 19:21 | 53.67665 | 9.70106 | 9480 ft | 292 kts | 252° |
| 2026-05-06 19:21 | 53.67005 | 9.66860 | 9746 ft | 293 kts | 252° |
| 2026-05-06 19:22 | 53.66357 | 9.63597 | 9960 ft | 299 kts | 252° |
| 2026-05-06 19:22 | 53.65677 | 9.60138 | 10256 ft | 322 kts | 251° |
| 2026-05-06 19:22 | 53.64692 | 9.56683 | 10881 ft | 332 kts | 238° |
| 2026-05-06 19:22 | 53.63351 | 9.53484 | 11692 ft | 336 kts | 234° |
| 2026-05-06 19:23 | 53.61975 | 9.50283 | 12554 ft | 338 kts | 234° |
| 2026-05-06 19:23 | 53.60591 | 9.47057 | 13397 ft | 341 kts | 234° |
| 2026-05-06 19:23 | 53.59197 | 9.43803 | 14163 ft | 344 kts | 235° |
| 2026-05-06 19:23 | 53.57787 | 9.40521 | 14899 ft | 347 kts | 234° |
| 2026-05-06 19:24 | 53.56363 | 9.37228 | 15640 ft | 349 kts | 234° |
| 2026-05-06 19:24 | 53.54927 | 9.33911 | 16385 ft | 352 kts | 234° |
| 2026-05-06 19:24 | 53.53482 | 9.30566 | 17115 ft | 355 kts | 234° |
| 2026-05-06 19:24 | 53.52027 | 9.27197 | 17827 ft | 358 kts | 234° |
| 2026-05-06 19:25 | 53.50556 | 9.23792 | 18483 ft | 361 kts | 234° |
| 2026-05-06 19:25 | 53.49072 | 9.20362 | 19102 ft | 365 kts | 234° |
| 2026-05-06 19:25 | 53.47574 | 9.16909 | 19717 ft | 368 kts | 234° |
| 2026-05-06 19:25 | 53.46057 | 9.13421 | 20336 ft | 371 kts | 234° |
| 2026-05-06 19:26 | 53.44549 | 9.09955 | 20933 ft | 374 kts | 234° |
| 2026-05-06 19:26 | 53.43005 | 9.06415 | 21549 ft | 378 kts | 234° |
| 2026-05-06 19:26 | 53.41461 | 9.02829 | 22149 ft | 380 kts | 237° |
| 2026-05-06 19:26 | 53.40318 | 8.98835 | 22730 ft | 382 kts | 250° |
| 2026-05-06 19:27 | 53.39397 | 8.94636 | 23328 ft | 385 kts | 250° |
| 2026-05-06 19:27 | 53.38476 | 8.90405 | 23833 ft | 388 kts | 250° |
| 2026-05-06 19:27 | 53.37553 | 8.86143 | 24333 ft | 391 kts | 250° |
| 2026-05-06 19:27 | 53.36601 | 8.81851 | 24817 ft | 393 kts | 249° |
| 2026-05-06 19:28 | 53.35607 | 8.77569 | 25317 ft | 395 kts | 248° |
| 2026-05-06 19:28 | 53.34581 | 8.73280 | 25789 ft | 398 kts | 248° |
| 2026-05-06 19:28 | 53.33535 | 8.68970 | 26276 ft | 400 kts | 248° |
| 2026-05-06 19:28 | 53.32487 | 8.64646 | 26755 ft | 403 kts | 248° |
| 2026-05-06 19:29 | 53.31435 | 8.60287 | 27217 ft | 405 kts | 248° |
| 2026-05-06 19:29 | 53.30392 | 8.55964 | 27680 ft | 407 kts | 248° |
| 2026-05-06 19:29 | 53.29329 | 8.51553 | 28148 ft | 410 kts | 248° |
| 2026-05-06 19:29 | 53.28262 | 8.47117 | 28620 ft | 412 kts | 248° |
| 2026-05-06 19:30 | 53.27191 | 8.42658 | 29079 ft | 415 kts | 247° |
| 2026-05-06 19:30 | 53.26115 | 8.38178 | 29531 ft | 417 kts | 247° |
| 2026-05-06 19:30 | 53.25030 | 8.33667 | 29966 ft | 420 kts | 247° |
| 2026-05-06 19:30 | 53.23938 | 8.29136 | 30335 ft | 422 kts | 247° |
| 2026-05-06 19:31 | 53.22833 | 8.24580 | 30704 ft | 424 kts | 247° |
| 2026-05-06 19:31 | 53.21720 | 8.20011 | 31063 ft | 426 kts | 247° |
| 2026-05-06 19:31 | 53.19471 | 8.10815 | 31755 ft | 429 kts | 247° |
| 2026-05-06 19:32 | 53.18343 | 8.06212 | 32253 ft | 428 kts | 247° |
| 2026-05-06 19:32 | 53.17219 | 8.01630 | 32745 ft | 426 kts | 247° |
| 2026-05-06 19:32 | 53.16096 | 7.97065 | 33226 ft | 425 kts | 247° |
| 2026-05-06 19:32 | 53.14988 | 7.92572 | 33705 ft | 424 kts | 247° |
| 2026-05-06 19:33 | 53.13869 | 7.88035 | 34132 ft | 423 kts | 247° |
| 2026-05-06 19:33 | 53.12750 | 7.83501 | 34521 ft | 423 kts | 247° |
| 2026-05-06 19:33 | 53.11628 | 7.78968 | 34885 ft | 423 kts | 247° |
| 2026-05-06 19:33 | 53.10505 | 7.74447 | 35236 ft | 423 kts | 247° |
| 2026-05-06 19:34 | 53.09380 | 7.69934 | 35579 ft | 423 kts | 247° |
| 2026-05-06 19:34 | 53.08248 | 7.65409 | 35902 ft | 423 kts | 247° |
| 2026-05-06 19:34 | 53.07118 | 7.60888 | 36223 ft | 423 kts | 247° |
| 2026-05-06 19:34 | 53.05989 | 7.56371 | 36538 ft | 423 kts | 247° |
| 2026-05-06 19:35 | 53.04859 | 7.51856 | 36843 ft | 423 kts | 246° |
| 2026-05-06 19:35 | 53.03728 | 7.47343 | 37151 ft | 423 kts | 246° |
| 2026-05-06 19:35 | 53.02593 | 7.42824 | 37449 ft | 424 kts | 246° |
| 2026-05-06 19:35 | 53.01456 | 7.38306 | 37745 ft | 424 kts | 246° |
| 2026-05-06 19:36 | 53.00315 | 7.33785 | 37906 ft | 425 kts | 246° |
| 2026-05-06 19:36 | 52.99172 | 7.29268 | 37941 ft | 425 kts | 246° |
| 2026-05-06 19:36 | 52.96884 | 7.20235 | 37939 ft | 425 kts | 246° |
| 2026-05-06 19:37 | 52.94560 | 7.11088 | 37932 ft | 436 kts | 246° |
| 2026-05-06 19:37 | 52.92180 | 7.01775 | 37940 ft | 440 kts | 246° |
| 2026-05-06 19:38 | 52.89781 | 6.92441 | 37931 ft | 441 kts | 246° |
| 2026-05-06 19:38 | 52.87376 | 6.83112 | 37949 ft | 441 kts | 246° |
| 2026-05-06 19:39 | 52.84961 | 6.73788 | 37939 ft | 441 kts | 246° |
| 2026-05-06 19:39 | 52.82530 | 6.64471 | 37937 ft | 441 kts | 246° |
| 2026-05-06 19:40 | 52.80103 | 6.55170 | 37940 ft | 441 kts | 246° |
| 2026-05-06 19:40 | 52.77670 | 6.45862 | 37936 ft | 441 kts | 246° |
| 2026-05-06 19:41 | 52.75222 | 6.36556 | 37936 ft | 442 kts | 246° |
| 2026-05-06 19:41 | 52.72784 | 6.27319 | 37945 ft | 442 kts | 246° |
| 2026-05-06 19:42 | 52.70319 | 6.18021 | 37946 ft | 443 kts | 246° |
| 2026-05-06 19:42 | 52.67843 | 6.08725 | 37956 ft | 443 kts | 246° |
| 2026-05-06 19:43 | 52.65355 | 5.99416 | 37945 ft | 443 kts | 246° |
| 2026-05-06 19:43 | 52.62856 | 5.90128 | 37954 ft | 444 kts | 246° |
| 2026-05-06 19:44 | 52.60351 | 5.80839 | 37958 ft | 444 kts | 246° |
| 2026-05-06 19:44 | 52.57837 | 5.71557 | 37957 ft | 444 kts | 246° |
| 2026-05-06 19:45 | 52.55318 | 5.62300 | 37956 ft | 444 kts | 246° |
| 2026-05-06 19:45 | 52.52810 | 5.53098 | 37959 ft | 444 kts | 245° |
| 2026-05-06 19:46 | 52.50281 | 5.43870 | 37949 ft | 443 kts | 245° |
| 2026-05-06 19:46 | 52.47740 | 5.34643 | 37951 ft | 444 kts | 245° |
| 2026-05-06 19:47 | 52.45193 | 5.25430 | 37958 ft | 444 kts | 245° |
| 2026-05-06 19:47 | 52.42630 | 5.16203 | 37956 ft | 444 kts | 245° |
| 2026-05-06 19:48 | 52.40067 | 5.06988 | 37971 ft | 444 kts | 245° |
| 2026-05-06 19:48 | 52.37495 | 4.97794 | 37977 ft | 444 kts | 245° |
| 2026-05-06 19:49 | 52.34916 | 4.88609 | 37979 ft | 444 kts | 245° |
| 2026-05-06 19:49 | 52.32331 | 4.79419 | 37980 ft | 445 kts | 245° |
| 2026-05-06 19:50 | 52.29737 | 4.70242 | 37984 ft | 445 kts | 245° |
| 2026-05-06 19:50 | 52.27133 | 4.61080 | 37981 ft | 444 kts | 245° |
| 2026-05-06 19:51 | 52.24530 | 4.51934 | 37975 ft | 444 kts | 245° |
| 2026-05-06 19:51 | 52.21917 | 4.42803 | 37969 ft | 444 kts | 245° |
| 2026-05-06 19:52 | 52.19297 | 4.33683 | 37962 ft | 444 kts | 245° |
| 2026-05-06 19:52 | 52.16682 | 4.24629 | 37963 ft | 445 kts | 245° |
| 2026-05-06 19:53 | 52.14025 | 4.15468 | 37979 ft | 444 kts | 245° |
| 2026-05-06 19:53 | 52.11398 | 4.06438 | 37971 ft | 444 kts | 245° |
| 2026-05-06 19:54 | 52.08757 | 3.97369 | 37982 ft | 443 kts | 245° |
| 2026-05-06 19:54 | 52.06113 | 3.88326 | 37988 ft | 443 kts | 245° |
| 2026-05-06 19:55 | 52.03453 | 3.79300 | 37988 ft | 442 kts | 245° |
| 2026-05-06 19:55 | 52.00787 | 3.70286 | 37990 ft | 442 kts | 245° |
| 2026-05-06 19:56 | 51.98126 | 3.61292 | 37978 ft | 442 kts | 245° |
| 2026-05-06 19:56 | 51.95493 | 3.52421 | 37969 ft | 429 kts | 245° |
| 2026-05-06 19:57 | 51.92905 | 3.43755 | 37974 ft | 426 kts | 245° |
| 2026-05-06 19:57 | 51.90317 | 3.35112 | 37977 ft | 426 kts | 245° |
| 2026-05-06 19:58 | 51.87727 | 3.26480 | 37976 ft | 426 kts | 245° |
| 2026-05-06 19:58 | 51.85308 | 3.17758 | 37981 ft | 425 kts | 253° |
| 2026-05-06 19:59 | 51.84348 | 3.08361 | 37986 ft | 425 kts | 264° |
| 2026-05-06 19:59 | 51.83744 | 2.98851 | 37989 ft | 425 kts | 264° |
| 2026-05-06 20:00 | 51.83430 | 2.94087 | 37797 ft | 426 kts | 264° |
| 2026-05-06 20:00 | 51.83114 | 2.89328 | 37490 ft | 425 kts | 264° |
| 2026-05-06 20:00 | 51.82798 | 2.84582 | 36920 ft | 425 kts | 264° |
| 2026-05-06 20:00 | 51.82480 | 2.79816 | 36222 ft | 428 kts | 264° |
| 2026-05-06 20:01 | 51.82158 | 2.75017 | 35504 ft | 430 kts | 264° |
| 2026-05-06 20:01 | 51.81940 | 2.71826 | 35004 ft | 432 kts | 264° |
| 2026-05-06 20:01 | 51.81608 | 2.66994 | 34485 ft | 430 kts | 263° |
| 2026-05-06 20:01 | 51.81277 | 2.62214 | 34005 ft | 426 kts | 263° |
| 2026-05-06 20:02 | 51.80948 | 2.57478 | 33468 ft | 422 kts | 263° |
| 2026-05-06 20:02 | 51.80624 | 2.52787 | 32990 ft | 417 kts | 263° |
| 2026-05-06 20:02 | 51.80199 | 2.46654 | 32329 ft | 412 kts | 263° |
| 2026-05-06 20:02 | 51.79984 | 2.43563 | 32006 ft | 409 kts | 263° |
| 2026-05-06 20:03 | 51.79665 | 2.39000 | 31515 ft | 405 kts | 263° |
| 2026-05-06 20:03 | 51.79350 | 2.34561 | 31051 ft | 401 kts | 263° |
| 2026-05-06 20:03 | 51.79026 | 2.30057 | 30578 ft | 397 kts | 263° |
| 2026-05-06 20:03 | 51.78703 | 2.25642 | 30104 ft | 394 kts | 263° |
| 2026-05-06 20:04 | 51.78384 | 2.21275 | 29604 ft | 390 kts | 263° |
| 2026-05-06 20:04 | 51.78103 | 2.17002 | 29157 ft | 385 kts | 264° |
| 2026-05-06 20:04 | 51.77855 | 2.12727 | 28720 ft | 380 kts | 265° |
| 2026-05-06 20:04 | 51.77622 | 2.08505 | 28301 ft | 376 kts | 265° |
| 2026-05-06 20:05 | 51.77391 | 2.04323 | 27877 ft | 372 kts | 265° |
| 2026-05-06 20:05 | 51.77154 | 2.00183 | 27479 ft | 369 kts | 264° |
| 2026-05-06 20:05 | 51.76915 | 1.96078 | 27078 ft | 366 kts | 264° |
| 2026-05-06 20:05 | 51.76674 | 1.92006 | 26691 ft | 362 kts | 264° |
| 2026-05-06 20:06 | 51.76431 | 1.87982 | 26311 ft | 359 kts | 264° |
| 2026-05-06 20:06 | 51.76187 | 1.83995 | 25933 ft | 355 kts | 264° |
| 2026-05-06 20:06 | 51.75943 | 1.80037 | 25541 ft | 352 kts | 264° |
| 2026-05-06 20:06 | 51.75701 | 1.76118 | 25161 ft | 349 kts | 264° |
| 2026-05-06 20:07 | 51.75462 | 1.72232 | 24769 ft | 346 kts | 264° |
| 2026-05-06 20:07 | 51.75219 | 1.68382 | 24386 ft | 343 kts | 264° |
| 2026-05-06 20:07 | 51.74975 | 1.64567 | 23985 ft | 341 kts | 264° |
| 2026-05-06 20:07 | 51.74733 | 1.60772 | 23578 ft | 339 kts | 264° |
| 2026-05-06 20:08 | 51.74497 | 1.57050 | 23131 ft | 336 kts | 264° |
| 2026-05-06 20:08 | 51.74261 | 1.53320 | 22720 ft | 332 kts | 264° |
| 2026-05-06 20:08 | 51.74025 | 1.49632 | 22309 ft | 329 kts | 264° |
| 2026-05-06 20:08 | 51.73789 | 1.45977 | 21903 ft | 326 kts | 264° |
| 2026-05-06 20:09 | 51.73552 | 1.42355 | 21498 ft | 323 kts | 264° |
| 2026-05-06 20:09 | 51.73319 | 1.38767 | 21092 ft | 321 kts | 264° |
| 2026-05-06 20:09 | 51.73087 | 1.35195 | 20689 ft | 319 kts | 264° |
| 2026-05-06 20:09 | 51.72855 | 1.31648 | 20283 ft | 317 kts | 264° |
| 2026-05-06 20:10 | 51.72621 | 1.28068 | 19876 ft | 316 kts | 264° |
| 2026-05-06 20:10 | 51.72392 | 1.24560 | 19469 ft | 314 kts | 264° |
| 2026-05-06 20:10 | 51.72163 | 1.21098 | 19072 ft | 313 kts | 264° |
| 2026-05-06 20:10 | 51.71930 | 1.17611 | 18672 ft | 313 kts | 264° |
| 2026-05-06 20:11 | 51.71697 | 1.14123 | 18270 ft | 312 kts | 264° |
| 2026-05-06 20:11 | 51.71463 | 1.10655 | 17826 ft | 310 kts | 264° |
| 2026-05-06 20:11 | 51.71228 | 1.07211 | 17424 ft | 308 kts | 264° |
| 2026-05-06 20:11 | 51.70992 | 1.03798 | 17030 ft | 305 kts | 264° |
| 2026-05-06 20:12 | 51.70758 | 1.00401 | 16635 ft | 304 kts | 264° |
| 2026-05-06 20:12 | 51.70526 | 0.97032 | 16244 ft | 302 kts | 264° |
| 2026-05-06 20:12 | 51.70295 | 0.93669 | 15861 ft | 302 kts | 264° |
| 2026-05-06 20:12 | 51.70058 | 0.90224 | 15505 ft | 314 kts | 264° |
| 2026-05-06 20:13 | 51.69815 | 0.86721 | 15139 ft | 315 kts | 264° |
| 2026-05-06 20:13 | 51.69569 | 0.83213 | 14764 ft | 314 kts | 264° |
| 2026-05-06 20:13 | 51.69323 | 0.79719 | 14394 ft | 313 kts | 264° |
| 2026-05-06 20:13 | 51.69076 | 0.76235 | 14032 ft | 312 kts | 264° |
| 2026-05-06 20:14 | 51.68830 | 0.72771 | 13645 ft | 311 kts | 264° |
| 2026-05-06 20:14 | 51.68588 | 0.69319 | 13259 ft | 309 kts | 264° |
| 2026-05-06 20:14 | 51.68346 | 0.65878 | 12892 ft | 308 kts | 264° |
| 2026-05-06 20:14 | 51.68101 | 0.62463 | 12528 ft | 306 kts | 264° |
| 2026-05-06 20:15 | 51.67854 | 0.59065 | 12166 ft | 305 kts | 264° |
| 2026-05-06 20:15 | 51.67605 | 0.55680 | 11804 ft | 303 kts | 264° |
| 2026-05-06 20:15 | 51.67357 | 0.52321 | 11454 ft | 301 kts | 264° |
| 2026-05-06 20:15 | 51.67116 | 0.49021 | 11232 ft | 293 kts | 264° |
| 2026-05-06 20:16 | 51.66880 | 0.45787 | 10961 ft | 289 kts | 264° |
| 2026-05-06 20:16 | 51.66647 | 0.42590 | 10616 ft | 287 kts | 264° |
| 2026-05-06 20:16 | 51.66414 | 0.39395 | 10224 ft | 287 kts | 264° |
| 2026-05-06 20:16 | 51.66181 | 0.36210 | 9830 ft | 286 kts | 264° |
| 2026-05-06 20:17 | 51.65947 | 0.33032 | 9408 ft | 285 kts | 264° |
| 2026-05-06 20:17 | 51.65710 | 0.29863 | 8992 ft | 284 kts | 264° |
| 2026-05-06 20:17 | 51.65475 | 0.26715 | 8621 ft | 282 kts | 264° |
| 2026-05-06 20:17 | 51.65240 | 0.23595 | 8284 ft | 279 kts | 264° |
| 2026-05-06 20:18 | 51.65008 | 0.20546 | 8152 ft | 269 kts | 263° |
| 2026-05-06 20:18 | 51.64784 | 0.17592 | 8026 ft | 273 kts | 263° |
| 2026-05-06 20:18 | 51.64552 | 0.14537 | 8023 ft | 276 kts | 264° |
| 2026-05-06 20:18 | 51.64386 | 0.11455 | 8027 ft | 277 kts | 266° |
| 2026-05-06 20:19 | 51.64246 | 0.08366 | 8030 ft | 277 kts | 266° |
| 2026-05-06 20:19 | 51.64108 | 0.05271 | 8025 ft | 277 kts | 266° |
| 2026-05-06 20:19 | 51.63972 | 0.02169 | 8028 ft | 277 kts | 266° |
| 2026-05-06 20:19 | 51.63825 | -0.00927 | 8027 ft | 278 kts | 264° |
| 2026-05-06 20:20 | 51.63552 | -0.04005 | 7902 ft | 278 kts | 261° |
| 2026-05-06 20:20 | 51.63254 | -0.07073 | 7770 ft | 277 kts | 261° |
| 2026-05-06 20:20 | 51.62958 | -0.10131 | 7664 ft | 277 kts | 261° |
| 2026-05-06 20:20 | 51.62661 | -0.13193 | 7544 ft | 276 kts | 261° |
| 2026-05-06 20:21 | 51.62363 | -0.16242 | 7419 ft | 276 kts | 261° |
| 2026-05-06 20:21 | 51.62065 | -0.19284 | 7295 ft | 275 kts | 261° |
| 2026-05-06 20:21 | 51.61766 | -0.22327 | 7171 ft | 275 kts | 261° |
| 2026-05-06 20:21 | 51.61467 | -0.25365 | 7054 ft | 274 kts | 261° |
| 2026-05-06 20:22 | 51.61167 | -0.28390 | 7056 ft | 274 kts | 261° |
| 2026-05-06 20:22 | 51.60863 | -0.31419 | 7028 ft | 274 kts | 261° |
| 2026-05-06 20:22 | 51.60555 | -0.34445 | 7031 ft | 274 kts | 261° |
| 2026-05-06 20:22 | 51.60243 | -0.37470 | 7031 ft | 274 kts | 261° |
| 2026-05-06 20:23 | 51.59927 | -0.40490 | 7025 ft | 273 kts | 261° |
| 2026-05-06 20:23 | 51.59606 | -0.43499 | 7029 ft | 273 kts | 261° |
| 2026-05-06 20:23 | 51.59282 | -0.46510 | 6931 ft | 274 kts | 261° |
| 2026-05-06 20:23 | 51.58955 | -0.49515 | 6727 ft | 272 kts | 261° |
| 2026-05-06 20:24 | 51.58629 | -0.52495 | 6534 ft | 271 kts | 261° |
| 2026-05-06 20:24 | 51.58307 | -0.55438 | 6327 ft | 270 kts | 261° |
| 2026-05-06 20:24 | 51.57982 | -0.58405 | 6119 ft | 269 kts | 261° |
| 2026-05-06 20:24 | 51.57657 | -0.61357 | 5902 ft | 269 kts | 261° |
| 2026-05-06 20:25 | 51.57334 | -0.64286 | 5694 ft | 262 kts | 261° |
| 2026-05-06 20:25 | 51.57019 | -0.67130 | 5483 ft | 255 kts | 261° |
| 2026-05-06 20:25 | 51.56709 | -0.69897 | 5326 ft | 248 kts | 261° |
| 2026-05-06 20:25 | 51.56406 | -0.72575 | 5191 ft | 239 kts | 261° |
| 2026-05-06 20:26 | 51.56051 | -0.75151 | 5056 ft | 234 kts | 250° |
| 2026-05-06 20:26 | 51.55096 | -0.77155 | 4946 ft | 224 kts | 216° |
| 2026-05-06 20:26 | 51.53680 | -0.77984 | 4777 ft | 214 kts | 186° |
| 2026-05-06 20:26 | 51.52219 | -0.78104 | 4445 ft | 207 kts | 180° |
| 2026-05-06 20:27 | 51.50889 | -0.77476 | 4099 ft | 200 kts | 142° |
| 2026-05-06 20:27 | 51.49962 | -0.75834 | 3745 ft | 200 kts | 123° |
| 2026-05-06 20:27 | 51.49177 | -0.73985 | 3419 ft | 200 kts | 121° |
| 2026-05-06 20:27 | 51.48420 | -0.72155 | 3104 ft | 194 kts | 121° |
| 2026-05-06 20:28 | 51.47784 | -0.70289 | 2827 ft | 188 kts | 104° |
| 2026-05-06 20:28 | 51.47648 | -0.68243 | 2586 ft | 184 kts | 86° |
| 2026-05-06 20:28 | 51.47662 | -0.66193 | 2339 ft | 183 kts | 86° |
| 2026-05-06 20:28 | 51.47674 | -0.64159 | 2086 ft | 182 kts | 86° |
| 2026-05-06 20:29 | 51.47684 | -0.62176 | 1870 ft | 172 kts | 86° |
| 2026-05-06 20:29 | 51.47693 | -0.60303 | 1604 ft | 163 kts | 86° |
| 2026-05-06 20:29 | 51.47701 | -0.58564 | 1389 ft | 149 kts | 85° |
| 2026-05-06 20:29 | 51.47708 | -0.56978 | 1191 ft | 136 kts | 85° |
| 2026-05-06 20:30 | 51.47716 | -0.55490 | 1005 ft | 131 kts | 85° |
| 2026-05-06 20:30 | 51.47729 | -0.52617 | 641 ft | 127 kts | 86° |
| 2026-05-06 20:30 | 51.47740 | -0.51114 | 766 ft | 146 kts | 86° |
| 2026-05-06 20:31 | 51.47757 | -0.49461 | 1575 ft | 156 kts | 85° |
| 2026-05-06 20:31 | 51.47786 | -0.47656 | 1985 ft | 174 kts | 81° |
| 2026-05-06 20:31 | 51.48335 | -0.45848 | 2372 ft | 191 kts | 43° |
| 2026-05-06 20:31 | 51.49481 | -0.44717 | 2903 ft | 198 kts | 25° |
| 2026-05-06 20:32 | 51.50636 | -0.43541 | 2994 ft | 196 kts | 34° |
| 2026-05-06 20:32 | 51.51737 | -0.42252 | 3005 ft | 195 kts | 35° |
| 2026-05-06 20:32 | 51.52928 | -0.41261 | 3128 ft | 194 kts | 12° |
| 2026-05-06 20:32 | 51.54298 | -0.41083 | 3396 ft | 196 kts | 1° |
| 2026-05-06 20:33 | 51.55587 | -0.41658 | 3656 ft | 199 kts | 332° |
| 2026-05-06 20:33 | 51.56754 | -0.42870 | 3894 ft | 202 kts | 327° |
| 2026-05-06 20:33 | 51.57997 | -0.44254 | 3986 ft | 222 kts | 326° |
| 2026-05-06 20:33 | 51.59261 | -0.45665 | 4013 ft | 225 kts | 326° |
| 2026-05-06 20:34 | 51.60550 | -0.47100 | 4006 ft | 225 kts | 326° |
| 2026-05-06 20:34 | 51.61835 | -0.48539 | 4008 ft | 225 kts | 326° |
| 2026-05-06 20:34 | 51.63118 | -0.49993 | 4001 ft | 226 kts | 323° |
| 2026-05-06 20:34 | 51.64060 | -0.51987 | 4013 ft | 229 kts | 291° |
| 2026-05-06 20:35 | 51.64289 | -0.54530 | 4009 ft | 231 kts | 273° |
| 2026-05-06 20:35 | 51.64303 | -0.57124 | 4009 ft | 231 kts | 271° |
| 2026-05-06 20:35 | 51.64297 | -0.59716 | 4010 ft | 232 kts | 271° |
| 2026-05-06 20:35 | 51.64268 | -0.62304 | 4009 ft | 232 kts | 267° |
| 2026-05-06 20:36 | 51.63806 | -0.64794 | 4009 ft | 234 kts | 248° |
| 2026-05-06 20:36 | 51.63133 | -0.67174 | 4007 ft | 234 kts | 246° |
| 2026-05-06 20:36 | 51.62441 | -0.69538 | 4002 ft | 234 kts | 246° |
| 2026-05-06 20:36 | 51.61744 | -0.71904 | 4006 ft | 234 kts | 246° |
| 2026-05-06 20:37 | 51.61047 | -0.74263 | 3995 ft | 231 kts | 246° |
| 2026-05-06 20:37 | 51.60376 | -0.76515 | 4005 ft | 214 kts | 246° |
| 2026-05-06 20:37 | 51.59754 | -0.78583 | 3994 ft | 197 kts | 246° |
| 2026-05-06 20:37 | 51.59162 | -0.80538 | 4009 ft | 193 kts | 246° |
| 2026-05-06 20:38 | 51.58571 | -0.82465 | 4005 ft | 192 kts | 244° |
| 2026-05-06 20:38 | 51.57684 | -0.84070 | 4015 ft | 195 kts | 220° |
| 2026-05-06 20:38 | 51.56597 | -0.85329 | 4003 ft | 195 kts | 212° |
| 2026-05-06 20:38 | 51.55290 | -0.85891 | 4016 ft | 197 kts | 185° |
| 2026-05-06 20:39 | 51.53920 | -0.85989 | 4008 ft | 197 kts | 180° |
| 2026-05-06 20:39 | 51.52622 | -0.85406 | 3907 ft | 197 kts | 143° |
| 2026-05-06 20:39 | 51.51709 | -0.83819 | 3722 ft | 193 kts | 124° |
| 2026-05-06 20:39 | 51.50954 | -0.82040 | 3575 ft | 193 kts | 121° |
| 2026-05-06 20:40 | 51.50216 | -0.80245 | 3447 ft | 192 kts | 121° |
| 2026-05-06 20:40 | 51.49482 | -0.78460 | 3341 ft | 191 kts | 121° |
| 2026-05-06 20:40 | 51.48751 | -0.76679 | 3275 ft | 191 kts | 121° |
| 2026-05-06 20:40 | 51.48027 | -0.74897 | 3201 ft | 190 kts | 118° |
| 2026-05-06 20:41 | 51.47631 | -0.72904 | 3095 ft | 187 kts | 91° |
| 2026-05-06 20:41 | 51.47632 | -0.70832 | 2886 ft | 185 kts | 86° |
| 2026-05-06 20:41 | 51.47647 | -0.68771 | 2651 ft | 184 kts | 86° |
| 2026-05-06 20:41 | 51.47659 | -0.66720 | 2401 ft | 184 kts | 86° |
| 2026-05-06 20:42 | 51.47671 | -0.64700 | 2186 ft | 178 kts | 86° |
| 2026-05-06 20:42 | 51.47681 | -0.62735 | 1910 ft | 174 kts | 86° |
| 2026-05-06 20:42 | 51.47691 | -0.60834 | 1670 ft | 166 kts | 86° |
| 2026-05-06 20:42 | 51.47699 | -0.59037 | 1441 ft | 154 kts | 86° |
| 2026-05-06 20:43 | 51.47706 | -0.57422 | 1245 ft | 138 kts | 86° |
| 2026-05-06 20:43 | 51.47714 | -0.55926 | 1058 ft | 131 kts | 85° |
| 2026-05-06 20:43 | 51.47721 | -0.54483 | 875 ft | 128 kts | 85° |
| 2026-05-06 20:43 | 51.47727 | -0.53061 | 693 ft | 126 kts | 86° |
| 2026-05-06 20:44 | 51.47734 | -0.51658 | 534 ft | 126 kts | 86° |
| 2026-05-06 20:44 | 51.47742 | -0.50280 | 355 ft | 125 kts | 87° |
| 2026-05-06 20:44 | 51.47747 | -0.48875 | 184 ft | 124 kts | 86° |
| 2026-05-06 20:44 | 51.47754 | -0.47525 | 85 ft | 112 kts | 88° |
| 2026-05-06 20:45 | 51.47758 | -0.46621 | 92 ft | 58 kts | 90° |
| 2026-05-06 20:45 | 51.47759 | -0.46261 | 88 ft | 27 kts | 91° |
| 2026-05-06 20:45 | 51.47638 | -0.46075 | 88 ft | 9 kts | 145° |
| 2026-05-06 20:45 | 51.47599 | -0.46020 | 89 ft | 9 kts | 123° |
| 2026-05-06 20:46 | 51.47595 | -0.45907 | 87 ft | 9 kts | 90° |
| 2026-05-06 20:46 | 51.47595 | -0.45896 | 87 ft | 0 kts | 90° |
| 2026-05-06 20:46 | 51.47595 | -0.45889 | 87 ft | 2 kts | 90° |
| 2026-05-06 20:47 | 51.47595 | -0.45845 | 89 ft | 6 kts | 90° |
| 2026-05-06 20:47 | 51.47594 | -0.45751 | 87 ft | 11 kts | 90° |
| 2026-05-06 20:47 | 51.47595 | -0.45577 | 89 ft | 20 kts | 89° |
| 2026-05-06 20:47 | 51.47596 | -0.45330 | 87 ft | 24 kts | 89° |
| 2026-05-06 20:48 | 51.47598 | -0.45062 | 87 ft | 15 kts | 90° |
| 2026-05-06 20:48 | 51.47598 | -0.44884 | 87 ft | 18 kts | 89° |
| 2026-05-06 20:48 | 51.47594 | -0.44680 | 89 ft | 14 kts | 116° |
| 2026-05-06 20:48 | 51.47510 | -0.44640 | 90 ft | 13 kts | 137° |
| 2026-05-06 20:49 | 51.47442 | -0.44561 | 87 ft | 14 kts | 176° |
| 2026-05-06 20:49 | 51.47334 | -0.44561 | 87 ft | 17 kts | 179° |
| 2026-05-06 20:49 | 51.47203 | -0.44560 | 87 ft | 20 kts | 179° |
| 2026-05-06 20:49 | 51.47053 | -0.44559 | 87 ft | 22 kts | 180° |
| 2026-05-06 20:50 | 51.46939 | -0.44558 | 87 ft | 13 kts | 179° |
| 2026-05-06 20:50 | 51.46846 | -0.44555 | 87 ft | 10 kts | 179° |
| 2026-05-06 20:50 | 51.46820 | -0.44592 | 88 ft | 5 kts | 266° |
| 2026-05-06 20:50 | 51.46820 | -0.44650 | 88 ft | 5 kts | 267° |
| 2026-05-06 20:51 | 51.46819 | -0.44682 | 87 ft | 1 kts | 267° |
| 2026-05-06 20:51 | 51.46819 | -0.44687 | 87 ft | 0 kts | 267° |